Terminal Aerodrome Forecast
Issued by NWS

Current Version | Previous Version | Text Only | Print | Product List | Glossary On
Versions: 1 2 3 4 5 6 7 8 9 10 11 12 13 14 15 16 17 18 19 20 21 22 23 24 25 26 27 28 29 30 31 32 33 34 35 36 37 38 39 40 41 42 43 44 45 46 47 48 49 50
000
FTAK31 PANC 220620 AAA
TAFASN
TAF AMD
PASN 220620Z 2206/2306 36017KT 6SM -SHSN FEW014 SCT025 OVC040
      TEMPO 2206/2210 36019G27KT 1SM -SHSN BKN014 OVC025
     FM221500 31011KT 2SM BR SCT010 BKN020
     FM222100 28014KT 1SM BR SCT010 BKN020
     FM230300 23015KT 1SM -SHSN BR SCT008 BKN012=

USA.gov is the U.S. government's official web portal to all federal, state and local government web resources and services.